createdAt,value
2023-03-25T00:01:09.423Z,11.11
2023-03-25T00:06:07.374Z,10.94
2023-03-25T00:11:04.591Z,10.99
2023-03-25T00:16:02.039Z,10.79
2023-03-25T00:20:58.896Z,10.76
2023-03-25T00:26:00.149Z,10.77
2023-03-25T00:31:06.574Z,10.78
2023-03-25T00:36:04.840Z,10.67
2023-03-25T00:41:25.269Z,10.64
2023-03-25T00:46:23.235Z,10.57
2023-03-25T00:51:21.460Z,10.54
2023-03-25T00:56:17.974Z,10.44
2023-03-25T01:01:16.917Z,10.47
2023-03-25T01:06:16.158Z,10.48
2023-03-25T01:11:21.450Z,10.52
2023-03-25T01:16:18.037Z,10.59
2023-03-25T01:21:14.828Z,10.64
2023-03-25T01:26:12.898Z,10.72
2023-03-25T01:31:11.657Z,10.58
2023-03-25T01:36:13.040Z,10.73
2023-03-25T01:41:11.913Z,10.69
2023-03-25T01:46:14.333Z,10.81
2023-03-25T01:51:13.499Z,10.88
2023-03-25T01:56:13.459Z,10.72
2023-03-25T02:01:13.621Z,10.80
2023-03-25T02:06:15.139Z,10.61
2023-03-25T02:11:11.946Z,10.65
2023-03-25T02:16:23.511Z,10.68
2023-03-25T02:22:00.645Z,10.68
2023-03-25T02:27:33.818Z,10.70
2023-03-25T02:33:01.770Z,10.70
2023-03-25T02:38:17.869Z,10.61
2023-03-25T02:43:20.970Z,10.46
2023-03-25T02:48:23.814Z,10.46
2023-03-25T02:53:26.696Z,10.41
2023-03-25T02:58:24.938Z,10.32
2023-03-25T03:03:21.534Z,10.46
2023-03-25T03:08:38.578Z,10.49
2023-03-25T03:14:13.810Z,10.50
2023-03-25T03:19:24.967Z,10.51
2023-03-25T03:24:27.667Z,10.53
2023-03-25T03:29:32.340Z,10.54
2023-03-25T03:34:44.843Z,10.54
2023-03-25T03:39:42.252Z,10.53
2023-03-25T03:44:40.530Z,10.49
2023-03-25T03:49:42.928Z,10.46
2023-03-25T03:54:47.494Z,10.43
2023-03-25T04:00:06.764Z,10.47
2023-03-25T04:05:03.252Z,10.37
2023-03-25T04:10:03.226Z,10.39
2023-03-25T04:15:04.028Z,10.42
2023-03-25T04:20:01.511Z,10.38
2023-03-25T04:25:00.200Z,10.42
2023-03-25T04:30:01.661Z,10.47
2023-03-25T04:34:58.136Z,10.46
2023-03-25T04:39:56.045Z,10.50
2023-03-25T04:44:52.972Z,10.53
2023-03-25T04:49:49.444Z,10.50
2023-03-25T04:54:46.305Z,10.42
2023-03-25T04:59:42.792Z,10.37
2023-03-25T05:04:42.217Z,10.35
2023-03-25T05:09:38.725Z,10.34
2023-03-25T05:14:35.325Z,10.32
2023-03-25T05:19:34.939Z,10.27
2023-03-25T05:24:31.698Z,10.27
2023-03-25T05:29:28.366Z,10.23
2023-03-25T05:34:25.618Z,10.18
2023-03-25T05:39:22.144Z,10.15
2023-03-25T05:44:19.064Z,10.06
2023-03-25T05:49:15.652Z,10.09
2023-03-25T05:54:14.092Z,10.13
2023-03-25T05:59:10.691Z,9.99
2023-03-25T06:04:10.151Z,10.17
2023-03-25T06:09:07.413Z,10.12
2023-03-25T06:14:04.761Z,10.16
2023-03-25T06:19:01.363Z,10.13
2023-03-25T06:23:58.833Z,10.22
2023-03-25T06:28:55.524Z,10.21
2023-03-25T06:33:52.657Z,10.23
2023-03-25T06:38:50.480Z,10.26
2023-03-25T06:43:48.358Z,10.30
2023-03-25T06:48:44.873Z,10.30
2023-03-25T06:53:42.529Z,10.34
2023-03-25T06:58:39.083Z,10.35
2023-03-25T07:03:37.047Z,10.47
2023-03-25T07:08:33.944Z,10.45
2023-03-25T07:13:31.302Z,10.38
2023-03-25T07:18:30.439Z,10.39
2023-03-25T07:23:27.126Z,10.39
2023-03-25T07:28:36.438Z,10.48
2023-03-25T07:33:38.846Z,10.60
2023-03-25T07:39:01.529Z,10.97
2023-03-25T07:50:01.122Z,10.92
2023-03-25T07:55:22.589Z,11.12
2023-03-25T08:00:53.705Z,10.97
2023-03-25T08:06:29.246Z,11.08
2023-03-25T08:11:43.153Z,11.16
2023-03-25T08:17:14.442Z,11.13
2023-03-25T08:22:22.053Z,11.18
2023-03-25T08:27:18.533Z,11.30
2023-03-25T08:32:15.289Z,11.47
2023-03-25T08:37:11.659Z,11.60
2023-03-25T08:42:10.860Z,11.62
2023-03-25T08:47:08.821Z,11.68
2023-03-25T08:52:14.649Z,11.66
2023-03-25T08:57:15.261Z,11.69
2023-03-25T09:02:18.995Z,11.60
2023-03-25T09:07:19.735Z,11.54
2023-03-25T09:12:33.078Z,11.34
2023-03-25T09:17:29.721Z,11.29
2023-03-25T09:22:27.084Z,11.17
2023-03-25T09:27:24.141Z,10.98
2023-03-25T09:37:32.407Z,10.89
2023-03-25T09:42:28.839Z,10.90
2023-03-25T09:47:26.060Z,10.83
2023-03-25T10:17:13.758Z,10.88
2023-03-25T10:22:18.402Z,11.01
2023-03-25T10:27:41.474Z,11.22
2023-03-25T10:33:16.798Z,11.43
2023-03-25T10:38:24.021Z,11.57
2023-03-25T10:43:24.926Z,11.78
2023-03-25T10:48:29.622Z,11.91
2023-03-25T10:53:28.302Z,11.96
2023-03-25T10:58:27.040Z,11.96
2023-03-25T11:03:36.538Z,12.04
2023-03-25T11:08:33.758Z,12.11
2023-03-25T11:19:05.452Z,12.10
2023-03-25T11:24:03.102Z,11.90
2023-03-25T11:29:13.286Z,11.73
2023-03-25T11:34:25.084Z,11.57
2023-03-25T11:39:36.700Z,11.38
2023-03-25T11:44:33.357Z,11.59
2023-03-25T11:49:30.107Z,11.82
2023-03-25T11:54:27.825Z,11.93
2023-03-25T11:59:33.831Z,12.08
2023-03-25T12:04:30.453Z,12.00
2023-03-25T12:09:30.966Z,12.19
2023-03-25T12:15:02.845Z,12.24
2023-03-25T12:20:16.960Z,12.24
2023-03-25T12:25:38.191Z,12.10
2023-03-25T12:30:45.390Z,12.21
2023-03-25T12:36:18.078Z,12.46
2023-03-25T13:46:53.198Z,11.80
2023-03-25T13:51:49.982Z,11.83
2023-03-25T13:57:08.319Z,11.84
2023-03-25T14:14:16.301Z,11.66
2023-03-25T14:19:36.285Z,11.54
2023-03-25T14:44:14.547Z,11.29
2023-03-25T15:21:17.387Z,11.44
2023-03-25T15:27:02.860Z,11.35
2023-03-25T15:45:07.897Z,11.32
2023-03-25T15:50:22.462Z,11.35
2023-03-25T15:55:27.055Z,11.17
2023-03-25T16:06:04.869Z,11.01
2023-03-25T16:11:33.586Z,10.90
2023-03-25T16:16:34.488Z,10.80
2023-03-25T16:21:32.187Z,10.77
2023-03-25T16:26:48.198Z,10.75
2023-03-25T16:31:51.954Z,10.75
2023-03-25T16:36:50.765Z,10.79
2023-03-25T18:28:04.065Z,9.77
2023-03-25T19:05:11.142Z,9.66
2023-03-25T21:52:52.357Z,9.06
2023-03-25T21:57:49.690Z,9.30
2023-03-25T22:02:46.996Z,9.48
2023-03-25T22:07:44.046Z,9.57
2023-03-25T22:12:40.535Z,9.51
2023-03-25T22:17:36.973Z,9.45
2023-03-25T22:22:33.416Z,9.39
2023-03-25T22:27:29.902Z,9.32
2023-03-25T22:32:27.542Z,9.30
2023-03-25T22:37:24.151Z,9.28
2023-03-25T22:42:20.607Z,9.27
2023-03-25T22:47:17.510Z,9.29
2023-03-25T22:52:13.959Z,9.31
2023-03-25T22:57:10.706Z,9.33
2023-03-25T23:02:07.699Z,9.32
2023-03-25T23:07:08.365Z,9.20
2023-03-25T23:12:05.453Z,9.26
2023-03-25T23:17:02.047Z,9.05
2023-03-25T23:21:59.557Z,9.02
2023-03-25T23:26:56.542Z,9.01
2023-03-25T23:31:53.109Z,9.03
2023-03-25T23:36:49.978Z,9.02
2023-03-25T23:41:46.365Z,9.22
2023-03-25T23:46:43.090Z,9.03
2023-03-25T23:51:41.306Z,9.03
2023-03-25T23:56:38.724Z,9.24
